Airfield :
LOGIN :

Register | Disclaimer

   EN    FR    IT 

 










Legend :    VFR   Marginal VFR   IFR   Intensive IFR   Very Intensive IFR
Visi :
Ceiling :
>= 8 km
>= 3000ft
5 to 8 km
1000 to 3000 ft
1500m to 5 km
500 to 1000 ft
800 to 1500m
200 to 500 ft
< 800m
< 200 ft
Symbols :   Thunderstorms  Fog  Heavy snow  Heavy precipitations  Wind > 20 kt
SIGMETs :     Misc.  Thunderstorms  Icing  Turbulence  Mountain Waves  Volcanic Ashes







- Airport Elevation : 187 ft


ETNW - Wunstorf AB

CURRENT METAR :
  • 201620Z 14005KT 9999 SCT040 BKN120 02/00 Q1001 BLU

EXPIRED METARs :
  • 201520Z 13004KT 9999 FEW020 BKN040 03/01 Q1002 BLU
  • 201420Z 15005KT 9999 SCT018 BKN035 03/01 Q1002 BLU
  • 201320Z 19006KT 9999 SCT016 BKN030 03/00 Q1003 BLU

TAF TAF ETNW
Valid from the 20 at 12:00 until the 21 at 12:00 UTC


201110Z 2012/2112 23008KT 8000 NSW SCT015 BKN030
TEMPO 2012/2024 25012KT 5000 BR BKN006
TEMPO 2100/2109 11002KT 0500 FZFG BKN001 CANCEL BY ETGL
No reported NOTAMs for that airfield.



MET'MAP, your aeronautical weather chart ! - Copyright ORBIFLY December 2007 - Disclaimer

ORBIFLY MET'MAP TEAM :

Programming & Development : Alexandra Zaïnal
Concept & Development : Baudouin d'Aumeries
Co-Development & Prog : Marc-Olivier Méhu
Technical & hardware support : Manuel Goepfert

Contact : metmap@orbifly.com




SOURCES & CREDITS :

   NOAA